sensor_id;sensor_type;location;lat;lon;timestamp;P1;durP1;ratioP1;P2;durP2;ratioP2
17214;SDS011;8723;51.502;6.918;2023-04-25T00:01:57;10.93;;;8.50;;
17214;SDS011;8723;51.502;6.918;2023-04-25T00:04:26;8.60;;;6.90;;
17214;SDS011;8723;51.502;6.918;2023-04-25T00:06:54;11.57;;;8.02;;
17214;SDS011;8723;51.502;6.918;2023-04-25T00:09:22;9.83;;;7.87;;
17214;SDS011;8723;51.502;6.918;2023-04-25T00:11:49;8.63;;;7.40;;
17214;SDS011;8723;51.502;6.918;2023-04-25T00:14:16;8.27;;;5.57;;
17214;SDS011;8723;51.502;6.918;2023-04-25T00:16:43;9.27;;;6.85;;
17214;SDS011;8723;51.502;6.918;2023-04-25T00:19:10;10.10;;;8.35;;
17214;SDS011;8723;51.502;6.918;2023-04-25T00:21:39;7.30;;;6.07;;
17214;SDS011;8723;51.502;6.918;2023-04-25T00:24:06;10.93;;;8.48;;
17214;SDS011;8723;51.502;6.918;2023-04-25T00:26:34;12.67;;;11.27;;
17214;SDS011;8723;51.502;6.918;2023-04-25T00:29:01;10.65;;;7.35;;
17214;SDS011;8723;51.502;6.918;2023-04-25T00:31:29;9.10;;;6.97;;
17214;SDS011;8723;51.502;6.918;2023-04-25T00:33:56;9.90;;;7.15;;
17214;SDS011;8723;51.502;6.918;2023-04-25T00:36:22;9.98;;;6.32;;
17214;SDS011;8723;51.502;6.918;2023-04-25T00:38:51;9.23;;;7.20;;
17214;SDS011;8723;51.502;6.918;2023-04-25T00:41:19;10.27;;;6.53;;
17214;SDS011;8723;51.502;6.918;2023-04-25T00:43:46;12.55;;;9.00;;
17214;SDS011;8723;51.502;6.918;2023-04-25T00:46:15;12.77;;;11.50;;
17214;SDS011;8723;51.502;6.918;2023-04-25T00:48:41;8.73;;;7.80;;
17214;SDS011;8723;51.502;6.918;2023-04-25T00:51:09;12.63;;;7.72;;
17214;SDS011;8723;51.502;6.918;2023-04-25T00:53:39;9.98;;;8.15;;
17214;SDS011;8723;51.502;6.918;2023-04-25T00:56:07;11.70;;;8.60;;
17214;SDS011;8723;51.502;6.918;2023-04-25T00:58:35;11.18;;;7.53;;
17214;SDS011;8723;51.502;6.918;2023-04-25T01:01:03;12.20;;;8.70;;
17214;SDS011;8723;51.502;6.918;2023-04-25T01:03:31;10.43;;;9.05;;
17214;SDS011;8723;51.502;6.918;2023-04-25T01:06:00;13.25;;;12.07;;
17214;SDS011;8723;51.502;6.918;2023-04-25T01:08:28;16.27;;;14.68;;
17214;SDS011;8723;51.502;6.918;2023-04-25T01:10:55;17.50;;;16.20;;
17214;SDS011;8723;51.502;6.918;2023-04-25T01:13:23;14.07;;;11.30;;
17214;SDS011;8723;51.502;6.918;2023-04-25T01:15:50;11.82;;;10.70;;
17214;SDS011;8723;51.502;6.918;2023-04-25T01:18:17;9.57;;;7.50;;
17214;SDS011;8723;51.502;6.918;2023-04-25T01:20:45;13.27;;;10.70;;
17214;SDS011;8723;51.502;6.918;2023-04-25T01:23:14;13.07;;;11.63;;
17214;SDS011;8723;51.502;6.918;2023-04-25T01:25:41;12.15;;;8.48;;
17214;SDS011;8723;51.502;6.918;2023-04-25T01:28:08;11.73;;;10.63;;
17214;SDS011;8723;51.502;6.918;2023-04-25T01:30:35;9.65;;;8.65;;
17214;SDS011;8723;51.502;6.918;2023-04-25T01:33:03;12.35;;;10.25;;
17214;SDS011;8723;51.502;6.918;2023-04-25T01:35:30;12.18;;;11.07;;
17214;SDS011;8723;51.502;6.918;2023-04-25T01:37:58;9.80;;;8.63;;
17214;SDS011;8723;51.502;6.918;2023-04-25T01:40:26;11.70;;;10.68;;
17214;SDS011;8723;51.502;6.918;2023-04-25T01:42:54;15.40;;;12.00;;
17214;SDS011;8723;51.502;6.918;2023-04-25T01:45:21;11.93;;;10.65;;
17214;SDS011;8723;51.502;6.918;2023-04-25T01:47:48;10.73;;;9.65;;
17214;SDS011;8723;51.502;6.918;2023-04-25T01:50:15;11.52;;;10.25;;
17214;SDS011;8723;51.502;6.918;2023-04-25T01:52:44;11.38;;;10.18;;
17214;SDS011;8723;51.502;6.918;2023-04-25T01:55:11;8.93;;;8.03;;
17214;SDS011;8723;51.502;6.918;2023-04-25T01:57:39;10.85;;;7.50;;
17214;SDS011;8723;51.502;6.918;2023-04-25T02:00:06;8.10;;;6.50;;
17214;SDS011;8723;51.502;6.918;2023-04-25T02:02:35;8.57;;;7.75;;
17214;SDS011;8723;51.502;6.918;2023-04-25T02:05:02;10.55;;;8.52;;
17214;SDS011;8723;51.502;6.918;2023-04-25T02:07:29;10.18;;;8.20;;
17214;SDS011;8723;51.502;6.918;2023-04-25T02:09:55;12.77;;;9.55;;
17214;SDS011;8723;51.502;6.918;2023-04-25T02:12:22;8.95;;;7.68;;
17214;SDS011;8723;51.502;6.918;2023-04-25T02:14:52;11.70;;;9.90;;
17214;SDS011;8723;51.502;6.918;2023-04-25T02:17:19;10.50;;;9.15;;
17214;SDS011;8723;51.502;6.918;2023-04-25T02:19:47;12.30;;;9.18;;
17214;SDS011;8723;51.502;6.918;2023-04-25T02:22:13;12.05;;;9.02;;
17214;SDS011;8723;51.502;6.918;2023-04-25T02:24:40;10.75;;;7.95;;
17214;SDS011;8723;51.502;6.918;2023-04-25T02:27:07;14.48;;;10.50;;
17214;SDS011;8723;51.502;6.918;2023-04-25T02:29:35;11.50;;;9.68;;
17214;SDS011;8723;51.502;6.918;2023-04-25T02:32:03;9.63;;;8.68;;
17214;SDS011;8723;51.502;6.918;2023-04-25T02:34:30;10.82;;;9.82;;
17214;SDS011;8723;51.502;6.918;2023-04-25T02:36:57;9.95;;;8.93;;
17214;SDS011;8723;51.502;6.918;2023-04-25T02:39:24;11.75;;;10.25;;
17214;SDS011;8723;51.502;6.918;2023-04-25T02:41:52;12.85;;;11.50;;
17214;SDS011;8723;51.502;6.918;2023-04-25T02:44:19;13.38;;;11.80;;
17214;SDS011;8723;51.502;6.918;2023-04-25T02:46:46;10.80;;;9.38;;
17214;SDS011;8723;51.502;6.918;2023-04-25T02:49:14;10.98;;;9.40;;
17214;SDS011;8723;51.502;6.918;2023-04-25T02:51:41;12.93;;;10.85;;
17214;SDS011;8723;51.502;6.918;2023-04-25T02:54:08;11.38;;;9.23;;
17214;SDS011;8723;51.502;6.918;2023-04-25T02:56:35;11.88;;;9.13;;
17214;SDS011;8723;51.502;6.918;2023-04-25T02:59:01;14.80;;;12.52;;
17214;SDS011;8723;51.502;6.918;2023-04-25T03:01:28;13.20;;;8.80;;
17214;SDS011;8723;51.502;6.918;2023-04-25T03:03:55;12.32;;;9.77;;
17214;SDS011;8723;51.502;6.918;2023-04-25T03:06:23;12.30;;;10.02;;
17214;SDS011;8723;51.502;6.918;2023-04-25T03:08:50;11.52;;;8.32;;
17214;SDS011;8723;51.502;6.918;2023-04-25T03:11:17;12.32;;;7.88;;
17214;SDS011;8723;51.502;6.918;2023-04-25T03:13:45;10.03;;;7.87;;
17214;SDS011;8723;51.502;6.918;2023-04-25T03:16:12;13.27;;;9.32;;
17214;SDS011;8723;51.502;6.918;2023-04-25T03:18:38;12.43;;;8.38;;
17214;SDS011;8723;51.502;6.918;2023-04-25T03:21:05;12.95;;;8.07;;
17214;SDS011;8723;51.502;6.918;2023-04-25T03:23:33;13.15;;;8.25;;
17214;SDS011;8723;51.502;6.918;2023-04-25T03:26:01;11.30;;;7.72;;
17214;SDS011;8723;51.502;6.918;2023-04-25T03:28:28;10.52;;;7.38;;
17214;SDS011;8723;51.502;6.918;2023-04-25T03:30:56;14.98;;;8.50;;
17214;SDS011;8723;51.502;6.918;2023-04-25T03:33:23;8.68;;;6.97;;
17214;SDS011;8723;51.502;6.918;2023-04-25T03:35:50;16.02;;;11.52;;
17214;SDS011;8723;51.502;6.918;2023-04-25T03:38:18;9.10;;;6.32;;
17214;SDS011;8723;51.502;6.918;2023-04-25T03:40:46;10.32;;;6.88;;
17214;SDS011;8723;51.502;6.918;2023-04-25T03:43:13;14.90;;;8.30;;
17214;SDS011;8723;51.502;6.918;2023-04-25T03:45:40;14.65;;;7.40;;
17214;SDS011;8723;51.502;6.918;2023-04-25T03:48:07;10.45;;;6.78;;
17214;SDS011;8723;51.502;6.918;2023-04-25T03:50:34;12.38;;;7.43;;
17214;SDS011;8723;51.502;6.918;2023-04-25T03:53:01;17.57;;;8.80;;
17214;SDS011;8723;51.502;6.918;2023-04-25T03:55:28;11.75;;;7.38;;
17214;SDS011;8723;51.502;6.918;2023-04-25T03:57:57;13.52;;;8.73;;
17214;SDS011;8723;51.502;6.918;2023-04-25T04:00:24;12.13;;;7.90;;
17214;SDS011;8723;51.502;6.918;2023-04-25T04:02:51;11.57;;;6.63;;
17214;SDS011;8723;51.502;6.918;2023-04-25T04:05:18;14.77;;;8.38;;
17214;SDS011;8723;51.502;6.918;2023-04-25T04:07:45;12.07;;;8.57;;
17214;SDS011;8723;51.502;6.918;2023-04-25T04:10:12;11.17;;;8.00;;
17214;SDS011;8723;51.502;6.918;2023-04-25T04:12:39;13.85;;;9.20;;
17214;SDS011;8723;51.502;6.918;2023-04-25T04:15:08;16.93;;;10.37;;
17214;SDS011;8723;51.502;6.918;2023-04-25T04:17:36;16.85;;;11.48;;
17214;SDS011;8723;51.502;6.918;2023-04-25T04:20:04;19.17;;;10.45;;
17214;SDS011;8723;51.502;6.918;2023-04-25T04:22:32;18.85;;;10.93;;
17214;SDS011;8723;51.502;6.918;2023-04-25T04:24:59;14.50;;;9.90;;
17214;SDS011;8723;51.502;6.918;2023-04-25T04:27:28;17.67;;;10.63;;
17214;SDS011;8723;51.502;6.918;2023-04-25T04:29:55;16.33;;;11.00;;
17214;SDS011;8723;51.502;6.918;2023-04-25T04:32:24;18.98;;;11.27;;
17214;SDS011;8723;51.502;6.918;2023-04-25T04:34:52;15.20;;;11.27;;
17214;SDS011;8723;51.502;6.918;2023-04-25T04:37:19;18.38;;;15.27;;
17214;SDS011;8723;51.502;6.918;2023-04-25T04:39:46;26.60;;;17.90;;
17214;SDS011;8723;51.502;6.918;2023-04-25T04:42:13;25.97;;;15.97;;
17214;SDS011;8723;51.502;6.918;2023-04-25T04:44:40;27.42;;;17.63;;
17214;SDS011;8723;51.502;6.918;2023-04-25T04:47:09;24.77;;;14.95;;
17214;SDS011;8723;51.502;6.918;2023-04-25T04:49:39;17.58;;;12.05;;
17214;SDS011;8723;51.502;6.918;2023-04-25T04:52:06;19.17;;;11.95;;
17214;SDS011;8723;51.502;6.918;2023-04-25T04:54:33;19.50;;;12.93;;
17214;SDS011;8723;51.502;6.918;2023-04-25T04:57:00;20.77;;;13.30;;
17214;SDS011;8723;51.502;6.918;2023-04-25T04:59:27;17.33;;;11.45;;
17214;SDS011;8723;51.502;6.918;2023-04-25T05:01:54;19.30;;;11.35;;
17214;SDS011;8723;51.502;6.918;2023-04-25T05:04:20;20.70;;;12.15;;
17214;SDS011;8723;51.502;6.918;2023-04-25T05:06:49;18.30;;;12.07;;
17214;SDS011;8723;51.502;6.918;2023-04-25T05:09:15;17.52;;;10.88;;
17214;SDS011;8723;51.502;6.918;2023-04-25T05:11:44;22.33;;;12.48;;
17214;SDS011;8723;51.502;6.918;2023-04-25T05:14:11;17.30;;;11.50;;
17214;SDS011;8723;51.502;6.918;2023-04-25T05:16:37;19.98;;;12.00;;
17214;SDS011;8723;51.502;6.918;2023-04-25T05:19:04;15.48;;;9.10;;
17214;SDS011;8723;51.502;6.918;2023-04-25T05:21:31;22.60;;;14.43;;
17214;SDS011;8723;51.502;6.918;2023-04-25T05:24:00;13.10;;;8.65;;
17214;SDS011;8723;51.502;6.918;2023-04-25T05:26:27;18.10;;;12.63;;
17214;SDS011;8723;51.502;6.918;2023-04-25T05:28:56;13.68;;;9.98;;
17214;SDS011;8723;51.502;6.918;2023-04-25T05:31:22;17.98;;;12.45;;
17214;SDS011;8723;51.502;6.918;2023-04-25T05:33:49;16.13;;;10.65;;
17214;SDS011;8723;51.502;6.918;2023-04-25T05:36:16;14.13;;;8.38;;
17214;SDS011;8723;51.502;6.918;2023-04-25T05:38:44;16.52;;;9.35;;
17214;SDS011;8723;51.502;6.918;2023-04-25T05:41:12;16.92;;;11.20;;
17214;SDS011;8723;51.502;6.918;2023-04-25T05:43:39;17.87;;;10.40;;
17214;SDS011;8723;51.502;6.918;2023-04-25T05:46:10;14.38;;;9.30;;
17214;SDS011;8723;51.502;6.918;2023-04-25T05:48:37;16.33;;;11.10;;
17214;SDS011;8723;51.502;6.918;2023-04-25T05:51:04;14.45;;;9.20;;
17214;SDS011;8723;51.502;6.918;2023-04-25T05:53:31;18.42;;;10.93;;
17214;SDS011;8723;51.502;6.918;2023-04-25T05:55:58;17.33;;;10.10;;
17214;SDS011;8723;51.502;6.918;2023-04-25T05:58:27;14.95;;;9.27;;
17214;SDS011;8723;51.502;6.918;2023-04-25T06:00:54;16.38;;;9.07;;
17214;SDS011;8723;51.502;6.918;2023-04-25T06:03:21;14.77;;;9.18;;
17214;SDS011;8723;51.502;6.918;2023-04-25T06:05:48;18.98;;;11.38;;
17214;SDS011;8723;51.502;6.918;2023-04-25T06:08:15;13.43;;;8.40;;
17214;SDS011;8723;51.502;6.918;2023-04-25T06:10:42;13.02;;;9.25;;
17214;SDS011;8723;51.502;6.918;2023-04-25T06:13:09;15.35;;;9.95;;
17214;SDS011;8723;51.502;6.918;2023-04-25T06:15:37;12.82;;;7.30;;
17214;SDS011;8723;51.502;6.918;2023-04-25T06:18:04;14.40;;;8.77;;
17214;SDS011;8723;51.502;6.918;2023-04-25T06:20:31;14.32;;;9.38;;
17214;SDS011;8723;51.502;6.918;2023-04-25T06:22:58;11.77;;;7.32;;
17214;SDS011;8723;51.502;6.918;2023-04-25T06:25:25;13.93;;;10.07;;
17214;SDS011;8723;51.502;6.918;2023-04-25T06:27:52;12.68;;;9.27;;
17214;SDS011;8723;51.502;6.918;2023-04-25T06:30:19;11.93;;;8.05;;
17214;SDS011;8723;51.502;6.918;2023-04-25T06:32:49;13.53;;;12.10;;
17214;SDS011;8723;51.502;6.918;2023-04-25T06:35:16;12.93;;;10.63;;
17214;SDS011;8723;51.502;6.918;2023-04-25T06:37:43;10.75;;;9.75;;
17214;SDS011;8723;51.502;6.918;2023-04-25T06:40:10;13.80;;;11.30;;
17214;SDS011;8723;51.502;6.918;2023-04-25T06:42:38;11.48;;;9.50;;
17214;SDS011;8723;51.502;6.918;2023-04-25T06:45:05;13.52;;;11.20;;
17214;SDS011;8723;51.502;6.918;2023-04-25T06:47:32;13.80;;;11.48;;
17214;SDS011;8723;51.502;6.918;2023-04-25T06:50:00;14.82;;;13.43;;
17214;SDS011;8723;51.502;6.918;2023-04-25T06:52:28;18.30;;;16.63;;
17214;SDS011;8723;51.502;6.918;2023-04-25T06:54:55;17.27;;;14.85;;
17214;SDS011;8723;51.502;6.918;2023-04-25T06:57:21;14.25;;;12.85;;
17214;SDS011;8723;51.502;6.918;2023-04-25T06:59:48;18.52;;;17.05;;
17214;SDS011;8723;51.502;6.918;2023-04-25T07:02:15;18.10;;;16.40;;
17214;SDS011;8723;51.502;6.918;2023-04-25T07:04:42;21.30;;;19.40;;
17214;SDS011;8723;51.502;6.918;2023-04-25T07:07:11;22.60;;;20.80;;
17214;SDS011;8723;51.502;6.918;2023-04-25T07:09:38;18.02;;;16.63;;
17214;SDS011;8723;51.502;6.918;2023-04-25T07:12:05;15.73;;;14.65;;
17214;SDS011;8723;51.502;6.918;2023-04-25T07:14:32;14.85;;;13.73;;
17214;SDS011;8723;51.502;6.918;2023-04-25T07:16:59;10.53;;;9.60;;
17214;SDS011;8723;51.502;6.918;2023-04-25T07:19:26;10.82;;;9.82;;
17214;SDS011;8723;51.502;6.918;2023-04-25T07:21:54;11.85;;;10.75;;
17214;SDS011;8723;51.502;6.918;2023-04-25T07:24:22;11.88;;;9.98;;
17214;SDS011;8723;51.502;6.918;2023-04-25T07:26:50;10.60;;;9.50;;
17214;SDS011;8723;51.502;6.918;2023-04-25T07:29:17;9.88;;;8.45;;
17214;SDS011;8723;51.502;6.918;2023-04-25T07:31:44;13.18;;;12.13;;
17214;SDS011;8723;51.502;6.918;2023-04-25T07:34:10;15.88;;;14.80;;
17214;SDS011;8723;51.502;6.918;2023-04-25T07:36:37;24.10;;;22.58;;
17214;SDS011;8723;51.502;6.918;2023-04-25T07:39:05;16.93;;;15.83;;
17214;SDS011;8723;51.502;6.918;2023-04-25T07:41:35;25.65;;;24.02;;
17214;SDS011;8723;51.502;6.918;2023-04-25T07:44:02;21.17;;;20.00;;
17214;SDS011;8723;51.502;6.918;2023-04-25T07:46:29;10.27;;;9.45;;
17214;SDS011;8723;51.502;6.918;2023-04-25T07:48:56;19.20;;;18.08;;
17214;SDS011;8723;51.502;6.918;2023-04-25T07:51:23;8.75;;;7.50;;
17214;SDS011;8723;51.502;6.918;2023-04-25T07:53:50;8.55;;;7.85;;
17214;SDS011;8723;51.502;6.918;2023-04-25T07:56:17;30.50;;;28.80;;
17214;SDS011;8723;51.502;6.918;2023-04-25T07:58:45;17.95;;;16.70;;
17214;SDS011;8723;51.502;6.918;2023-04-25T08:01:12;10.35;;;9.35;;
17214;SDS011;8723;51.502;6.918;2023-04-25T08:03:39;6.10;;;5.50;;
17214;SDS011;8723;51.502;6.918;2023-04-25T08:06:06;23.50;;;22.08;;
17214;SDS011;8723;51.502;6.918;2023-04-25T08:08:34;20.70;;;19.45;;
17214;SDS011;8723;51.502;6.918;2023-04-25T08:11:01;24.25;;;22.95;;
17214;SDS011;8723;51.502;6.918;2023-04-25T08:13:28;24.90;;;23.63;;
17214;SDS011;8723;51.502;6.918;2023-04-25T08:15:56;45.30;;;42.95;;
17214;SDS011;8723;51.502;6.918;2023-04-25T08:18:23;44.08;;;41.70;;
17214;SDS011;8723;51.502;6.918;2023-04-25T08:20:49;32.22;;;30.40;;
17214;SDS011;8723;51.502;6.918;2023-04-25T08:23:16;46.30;;;44.17;;
17214;SDS011;8723;51.502;6.918;2023-04-25T08:25:43;98.30;;;93.82;;
17214;SDS011;8723;51.502;6.918;2023-04-25T08:28:10;109.22;;;104.43;;
17214;SDS011;8723;51.502;6.918;2023-04-25T08:30:37;93.65;;;89.43;;
17214;SDS011;8723;51.502;6.918;2023-04-25T08:33:05;76.47;;;72.93;;
17214;SDS011;8723;51.502;6.918;2023-04-25T08:35:32;99.90;;;95.55;;
17214;SDS011;8723;51.502;6.918;2023-04-25T08:37:59;93.05;;;89.07;;
17214;SDS011;8723;51.502;6.918;2023-04-25T08:40:27;52.08;;;49.50;;
17214;SDS011;8723;51.502;6.918;2023-04-25T08:42:55;64.47;;;61.25;;
17214;SDS011;8723;51.502;6.918;2023-04-25T08:45:24;54.67;;;52.05;;
17214;SDS011;8723;51.502;6.918;2023-04-25T08:47:53;56.27;;;53.57;;
17214;SDS011;8723;51.502;6.918;2023-04-25T08:50:23;74.60;;;71.10;;
17214;SDS011;8723;51.502;6.918;2023-04-25T08:52:51;81.07;;;77.15;;
17214;SDS011;8723;51.502;6.918;2023-04-25T08:55:20;103.53;;;98.82;;
17214;SDS011;8723;51.502;6.918;2023-04-25T08:57:48;142.57;;;136.45;;
17214;SDS011;8723;51.502;6.918;2023-04-25T09:00:17;61.22;;;58.42;;
17214;SDS011;8723;51.502;6.918;2023-04-25T09:02:45;85.75;;;81.90;;
17214;SDS011;8723;51.502;6.918;2023-04-25T09:05:13;129.23;;;123.60;;
17214;SDS011;8723;51.502;6.918;2023-04-25T09:07:41;90.60;;;86.32;;
17214;SDS011;8723;51.502;6.918;2023-04-25T09:10:08;63.40;;;60.40;;
17214;SDS011;8723;51.502;6.918;2023-04-25T09:12:35;101.43;;;97.00;;
17214;SDS011;8723;51.502;6.918;2023-04-25T09:15:04;59.83;;;56.88;;
17214;SDS011;8723;51.502;6.918;2023-04-25T09:17:32;87.43;;;83.30;;
17214;SDS011;8723;51.502;6.918;2023-04-25T09:20:06;68.38;;;65.00;;
17214;SDS011;8723;51.502;6.918;2023-04-25T09:22:34;148.98;;;142.98;;
17214;SDS011;8723;51.502;6.918;2023-04-25T09:25:03;100.88;;;96.63;;
17214;SDS011;8723;51.502;6.918;2023-04-25T09:27:34;137.45;;;131.90;;
17214;SDS011;8723;51.502;6.918;2023-04-25T09:30:01;137.07;;;131.48;;
17214;SDS011;8723;51.502;6.918;2023-04-25T09:32:29;91.72;;;87.93;;
17214;SDS011;8723;51.502;6.918;2023-04-25T09:34:56;104.47;;;100.28;;
17214;SDS011;8723;51.502;6.918;2023-04-25T09:37:24;77.35;;;74.13;;
17214;SDS011;8723;51.502;6.918;2023-04-25T09:39:53;101.93;;;97.80;;
17214;SDS011;8723;51.502;6.918;2023-04-25T09:42:23;92.57;;;88.53;;
17214;SDS011;8723;51.502;6.918;2023-04-25T09:44:51;94.47;;;90.23;;
17214;SDS011;8723;51.502;6.918;2023-04-25T09:47:19;68.00;;;65.20;;
17214;SDS011;8723;51.502;6.918;2023-04-25T09:49:48;72.70;;;69.60;;
17214;SDS011;8723;51.502;6.918;2023-04-25T09:52:16;173.02;;;166.30;;
17214;SDS011;8723;51.502;6.918;2023-04-25T09:54:44;122.72;;;117.80;;
17214;SDS011;8723;51.502;6.918;2023-04-25T09:57:12;71.47;;;68.30;;
17214;SDS011;8723;51.502;6.918;2023-04-25T09:59:44;161.90;;;155.27;;
17214;SDS011;8723;51.502;6.918;2023-04-25T10:02:12;140.57;;;134.98;;
17214;SDS011;8723;51.502;6.918;2023-04-25T10:04:41;148.05;;;141.77;;
17214;SDS011;8723;51.502;6.918;2023-04-25T10:07:10;159.77;;;152.98;;
17214;SDS011;8723;51.502;6.918;2023-04-25T10:09:38;84.68;;;81.00;;
17214;SDS011;8723;51.502;6.918;2023-04-25T10:12:06;70.00;;;66.97;;
17214;SDS011;8723;51.502;6.918;2023-04-25T10:14:33;145.07;;;139.40;;
17214;SDS011;8723;51.502;6.918;2023-04-25T10:17:02;134.23;;;128.35;;
17214;SDS011;8723;51.502;6.918;2023-04-25T10:19:29;159.57;;;152.73;;
17214;SDS011;8723;51.502;6.918;2023-04-25T10:21:59;90.13;;;86.30;;
17214;SDS011;8723;51.502;6.918;2023-04-25T10:24:32;155.77;;;149.15;;
17214;SDS011;8723;51.502;6.918;2023-04-25T10:27:00;77.55;;;74.00;;
17214;SDS011;8723;51.502;6.918;2023-04-25T10:29:28;72.13;;;69.10;;
17214;SDS011;8723;51.502;6.918;2023-04-25T10:31:55;69.63;;;66.65;;
17214;SDS011;8723;51.502;6.918;2023-04-25T10:37:10;112.82;;;108.32;;
17214;SDS011;8723;51.502;6.918;2023-04-25T10:39:38;162.93;;;156.50;;
17214;SDS011;8723;51.502;6.918;2023-04-25T10:42:06;153.45;;;147.38;;
17214;SDS011;8723;51.502;6.918;2023-04-25T10:44:34;147.50;;;141.45;;
17214;SDS011;8723;51.502;6.918;2023-04-25T10:47:03;210.03;;;202.10;;
17214;SDS011;8723;51.502;6.918;2023-04-25T10:49:33;154.02;;;147.95;;
17214;SDS011;8723;51.502;6.918;2023-04-25T10:54:55;204.75;;;196.95;;
17214;SDS011;8723;51.502;6.918;2023-04-25T10:57:26;242.68;;;233.40;;
17214;SDS011;8723;51.502;6.918;2023-04-25T11:00:07;144.77;;;139.20;;
17214;SDS011;8723;51.502;6.918;2023-04-25T11:02:37;178.33;;;171.60;;
17214;SDS011;8723;51.502;6.918;2023-04-25T11:05:07;223.60;;;215.07;;
17214;SDS011;8723;51.502;6.918;2023-04-25T11:07:38;288.48;;;277.40;;
17214;SDS011;8723;51.502;6.918;2023-04-25T11:10:13;209.93;;;201.95;;
17214;SDS011;8723;51.502;6.918;2023-04-25T11:12:40;155.52;;;149.30;;
17214;SDS011;8723;51.502;6.918;2023-04-25T11:15:07;264.40;;;254.45;;
17214;SDS011;8723;51.502;6.918;2023-04-25T11:17:35;133.73;;;128.57;;
17214;SDS011;8723;51.502;6.918;2023-04-25T11:20:02;75.43;;;72.30;;
17214;SDS011;8723;51.502;6.918;2023-04-25T11:22:34;92.75;;;88.93;;
17214;SDS011;8723;51.502;6.918;2023-04-25T11:25:06;197.95;;;190.07;;
17214;SDS011;8723;51.502;6.918;2023-04-25T11:27:34;128.50;;;123.50;;
17214;SDS011;8723;51.502;6.918;2023-04-25T11:30:09;83.30;;;79.75;;
17214;SDS011;8723;51.502;6.918;2023-04-25T11:32:38;65.32;;;62.67;;
17214;SDS011;8723;51.502;6.918;2023-04-25T11:35:06;111.00;;;105.93;;
17214;SDS011;8723;51.502;6.918;2023-04-25T11:37:33;161.75;;;155.60;;
17214;SDS011;8723;51.502;6.918;2023-04-25T11:40:00;137.50;;;132.00;;
17214;SDS011;8723;51.502;6.918;2023-04-25T11:42:28;119.32;;;114.53;;
17214;SDS011;8723;51.502;6.918;2023-04-25T11:44:56;82.00;;;78.60;;
17214;SDS011;8723;51.502;6.918;2023-04-25T11:47:27;86.53;;;82.57;;
17214;SDS011;8723;51.502;6.918;2023-04-25T11:49:55;72.55;;;69.68;;
17214;SDS011;8723;51.502;6.918;2023-04-25T11:52:21;141.57;;;135.95;;
17214;SDS011;8723;51.502;6.918;2023-04-25T11:54:48;51.65;;;49.50;;
17214;SDS011;8723;51.502;6.918;2023-04-25T11:57:18;79.63;;;76.38;;
17214;SDS011;8723;51.502;6.918;2023-04-25T11:59:47;81.78;;;78.47;;
17214;SDS011;8723;51.502;6.918;2023-04-25T12:02:23;75.38;;;72.43;;
17214;SDS011;8723;51.502;6.918;2023-04-25T12:04:51;52.33;;;50.07;;
17214;SDS011;8723;51.502;6.918;2023-04-25T12:07:18;61.10;;;58.58;;
17214;SDS011;8723;51.502;6.918;2023-04-25T12:09:51;111.47;;;106.90;;
17214;SDS011;8723;51.502;6.918;2023-04-25T12:12:18;62.45;;;59.70;;
17214;SDS011;8723;51.502;6.918;2023-04-25T12:14:48;135.10;;;129.75;;
17214;SDS011;8723;51.502;6.918;2023-04-25T12:17:16;66.90;;;63.85;;
17214;SDS011;8723;51.502;6.918;2023-04-25T12:19:43;138.85;;;133.35;;
17214;SDS011;8723;51.502;6.918;2023-04-25T12:22:19;105.97;;;101.68;;
17214;SDS011;8723;51.502;6.918;2023-04-25T12:24:48;86.13;;;82.70;;
17214;SDS011;8723;51.502;6.918;2023-04-25T12:27:15;77.23;;;74.17;;
17214;SDS011;8723;51.502;6.918;2023-04-25T12:29:51;116.00;;;111.33;;
17214;SDS011;8723;51.502;6.918;2023-04-25T12:32:19;70.77;;;67.93;;
17214;SDS011;8723;51.502;6.918;2023-04-25T12:34:46;123.23;;;118.47;;
17214;SDS011;8723;51.502;6.918;2023-04-25T12:37:13;75.00;;;71.90;;
17214;SDS011;8723;51.502;6.918;2023-04-25T12:39:40;82.03;;;78.75;;
17214;SDS011;8723;51.502;6.918;2023-04-25T12:42:07;81.38;;;77.95;;
17214;SDS011;8723;51.502;6.918;2023-04-25T12:44:36;81.15;;;77.95;;
17214;SDS011;8723;51.502;6.918;2023-04-25T12:47:05;80.15;;;76.90;;
17214;SDS011;8723;51.502;6.918;2023-04-25T12:49:32;163.10;;;156.40;;
17214;SDS011;8723;51.502;6.918;2023-04-25T12:51:59;321.02;;;307.88;;
17214;SDS011;8723;51.502;6.918;2023-04-25T12:54:25;345.70;;;331.60;;
17214;SDS011;8723;51.502;6.918;2023-04-25T12:56:53;301.15;;;287.30;;
17214;SDS011;8723;51.502;6.918;2023-04-25T12:59:20;263.33;;;251.57;;
17214;SDS011;8723;51.502;6.918;2023-04-25T13:01:47;68.00;;;65.20;;
17214;SDS011;8723;51.502;6.918;2023-04-25T13:04:15;88.43;;;84.33;;
17214;SDS011;8723;51.502;6.918;2023-04-25T13:06:42;101.60;;;97.40;;
17214;SDS011;8723;51.502;6.918;2023-04-25T13:09:09;108.38;;;103.90;;
17214;SDS011;8723;51.502;6.918;2023-04-25T13:11:37;82.72;;;79.45;;
17214;SDS011;8723;51.502;6.918;2023-04-25T13:14:04;66.45;;;63.63;;
17214;SDS011;8723;51.502;6.918;2023-04-25T13:16:31;62.35;;;59.75;;
17214;SDS011;8723;51.502;6.918;2023-04-25T13:18:58;51.38;;;49.28;;
17214;SDS011;8723;51.502;6.918;2023-04-25T13:21:27;55.70;;;53.53;;
17214;SDS011;8723;51.502;6.918;2023-04-25T13:23:55;54.88;;;52.63;;
17214;SDS011;8723;51.502;6.918;2023-04-25T13:26:22;64.88;;;62.25;;
17214;SDS011;8723;51.502;6.918;2023-04-25T13:28:49;47.35;;;45.05;;
17214;SDS011;8723;51.502;6.918;2023-04-25T13:31:16;50.72;;;48.55;;
17214;SDS011;8723;51.502;6.918;2023-04-25T13:33:43;52.53;;;50.22;;
17214;SDS011;8723;51.502;6.918;2023-04-25T13:36:10;171.57;;;164.60;;
17214;SDS011;8723;51.502;6.918;2023-04-25T13:38:38;146.90;;;140.25;;
17214;SDS011;8723;51.502;6.918;2023-04-25T13:41:08;212.70;;;203.57;;
17214;SDS011;8723;51.502;6.918;2023-04-25T13:43:36;109.03;;;104.07;;
17214;SDS011;8723;51.502;6.918;2023-04-25T13:46:03;49.13;;;46.75;;
17214;SDS011;8723;51.502;6.918;2023-04-25T13:48:29;218.70;;;209.43;;
17214;SDS011;8723;51.502;6.918;2023-04-25T13:50:56;193.48;;;185.55;;
17214;SDS011;8723;51.502;6.918;2023-04-25T13:53:24;245.03;;;233.57;;
17214;SDS011;8723;51.502;6.918;2023-04-25T13:55:52;255.52;;;245.10;;
17214;SDS011;8723;51.502;6.918;2023-04-25T13:58:19;213.63;;;203.65;;
17214;SDS011;8723;51.502;6.918;2023-04-25T14:00:46;98.60;;;94.38;;
17214;SDS011;8723;51.502;6.918;2023-04-25T14:03:13;209.45;;;198.82;;
17214;SDS011;8723;51.502;6.918;2023-04-25T14:05:39;80.43;;;76.70;;
17214;SDS011;8723;51.502;6.918;2023-04-25T14:08:07;148.07;;;141.95;;
17214;SDS011;8723;51.502;6.918;2023-04-25T14:10:34;189.80;;;182.10;;
17214;SDS011;8723;51.502;6.918;2023-04-25T14:13:03;170.38;;;163.40;;
17214;SDS011;8723;51.502;6.918;2023-04-25T14:15:32;205.90;;;196.20;;
17214;SDS011;8723;51.502;6.918;2023-04-25T14:18:00;145.95;;;140.07;;
17214;SDS011;8723;51.502;6.918;2023-04-25T14:20:27;206.05;;;197.82;;
17214;SDS011;8723;51.502;6.918;2023-04-25T14:22:54;100.85;;;96.45;;
17214;SDS011;8723;51.502;6.918;2023-04-25T14:25:23;127.95;;;122.78;;
17214;SDS011;8723;51.502;6.918;2023-04-25T14:27:50;135.68;;;129.95;;
17214;SDS011;8723;51.502;6.918;2023-04-25T14:30:18;164.65;;;157.93;;
17214;SDS011;8723;51.502;6.918;2023-04-25T14:32:47;137.87;;;131.87;;
17214;SDS011;8723;51.502;6.918;2023-04-25T14:35:14;243.38;;;233.52;;
17214;SDS011;8723;51.502;6.918;2023-04-25T14:37:41;205.65;;;196.77;;
17214;SDS011;8723;51.502;6.918;2023-04-25T14:40:09;300.88;;;287.45;;
17214;SDS011;8723;51.502;6.918;2023-04-25T14:42:38;123.70;;;117.90;;